sensor_id;sensor_type;location;lat;lon;timestamp;P1;durP1;ratioP1;P2;durP2;ratioP2
19024;SDS011;9645;51.448;6.260;2024-01-30T00:01:53;32.38;;;13.48;;
19024;SDS011;9645;51.448;6.260;2024-01-30T00:04:20;25.95;;;12.65;;
19024;SDS011;9645;51.448;6.260;2024-01-30T00:06:50;26.23;;;11.25;;
19024;SDS011;9645;51.448;6.260;2024-01-30T00:09:17;29.77;;;12.98;;
19024;SDS011;9645;51.448;6.260;2024-01-30T00:11:44;25.77;;;11.25;;
19024;SDS011;9645;51.448;6.260;2024-01-30T00:14:12;23.85;;;11.50;;
19024;SDS011;9645;51.448;6.260;2024-01-30T00:16:39;31.27;;;12.90;;
19024;SDS011;9645;51.448;6.260;2024-01-30T00:19:06;28.25;;;12.07;;
19024;SDS011;9645;51.448;6.260;2024-01-30T00:21:33;26.20;;;11.73;;
19024;SDS011;9645;51.448;6.260;2024-01-30T00:24:02;31.70;;;13.00;;
19024;SDS011;9645;51.448;6.260;2024-01-30T00:26:29;26.20;;;12.45;;
19024;SDS011;9645;51.448;6.260;2024-01-30T00:28:56;32.92;;;12.07;;
19024;SDS011;9645;51.448;6.260;2024-01-30T00:31:23;21.17;;;10.60;;
19024;SDS011;9645;51.448;6.260;2024-01-30T00:33:51;27.05;;;12.20;;
19024;SDS011;9645;51.448;6.260;2024-01-30T00:36:18;27.40;;;11.07;;
19024;SDS011;9645;51.448;6.260;2024-01-30T00:38:45;22.27;;;11.93;;
19024;SDS011;9645;51.448;6.260;2024-01-30T00:41:14;25.27;;;10.40;;
19024;SDS011;9645;51.448;6.260;2024-01-30T00:43:43;28.58;;;11.68;;
19024;SDS011;9645;51.448;6.260;2024-01-30T00:46:12;23.60;;;11.25;;
19024;SDS011;9645;51.448;6.260;2024-01-30T00:48:39;33.47;;;11.77;;
19024;SDS011;9645;51.448;6.260;2024-01-30T00:51:06;23.20;;;11.02;;
19024;SDS011;9645;51.448;6.260;2024-01-30T00:53:34;23.88;;;10.73;;
19024;SDS011;9645;51.448;6.260;2024-01-30T00:56:01;23.38;;;10.70;;
19024;SDS011;9645;51.448;6.260;2024-01-30T00:58:30;21.38;;;10.90;;
19024;SDS011;9645;51.448;6.260;2024-01-30T01:00:57;23.52;;;11.38;;
19024;SDS011;9645;51.448;6.260;2024-01-30T01:03:24;26.15;;;11.00;;
19024;SDS011;9645;51.448;6.260;2024-01-30T01:05:51;26.23;;;11.02;;
19024;SDS011;9645;51.448;6.260;2024-01-30T01:08:18;33.17;;;11.43;;
19024;SDS011;9645;51.448;6.260;2024-01-30T01:10:45;31.00;;;10.63;;
19024;SDS011;9645;51.448;6.260;2024-01-30T01:13:13;23.67;;;11.00;;
19024;SDS011;9645;51.448;6.260;2024-01-30T01:15:42;22.92;;;11.50;;
19024;SDS011;9645;51.448;6.260;2024-01-30T01:18:09;23.27;;;11.13;;
19024;SDS011;9645;51.448;6.260;2024-01-30T01:20:36;27.88;;;11.15;;
19024;SDS011;9645;51.448;6.260;2024-01-30T01:23:03;26.65;;;10.77;;
19024;SDS011;9645;51.448;6.260;2024-01-30T01:25:30;24.92;;;10.88;;
19024;SDS011;9645;51.448;6.260;2024-01-30T01:27:57;20.08;;;9.93;;
19024;SDS011;9645;51.448;6.260;2024-01-30T01:30:26;29.35;;;11.90;;
19024;SDS011;9645;51.448;6.260;2024-01-30T01:32:55;27.45;;;11.18;;
19024;SDS011;9645;51.448;6.260;2024-01-30T01:35:26;24.58;;;11.13;;
19024;SDS011;9645;51.448;6.260;2024-01-30T01:37:53;27.40;;;11.30;;
19024;SDS011;9645;51.448;6.260;2024-01-30T01:40:22;28.60;;;12.15;;
19024;SDS011;9645;51.448;6.260;2024-01-30T01:42:49;25.48;;;11.10;;
19024;SDS011;9645;51.448;6.260;2024-01-30T01:45:17;27.00;;;11.45;;
19024;SDS011;9645;51.448;6.260;2024-01-30T01:47:45;31.63;;;12.35;;
19024;SDS011;9645;51.448;6.260;2024-01-30T01:50:16;25.63;;;11.70;;
19024;SDS011;9645;51.448;6.260;2024-01-30T01:52:48;29.92;;;12.50;;
19024;SDS011;9645;51.448;6.260;2024-01-30T01:55:15;32.25;;;12.63;;
19024;SDS011;9645;51.448;6.260;2024-01-30T01:57:46;25.35;;;11.65;;
19024;SDS011;9645;51.448;6.260;2024-01-30T02:00:13;24.27;;;11.52;;
19024;SDS011;9645;51.448;6.260;2024-01-30T02:02:41;28.40;;;11.95;;
19024;SDS011;9645;51.448;6.260;2024-01-30T02:05:09;25.45;;;11.52;;
19024;SDS011;9645;51.448;6.260;2024-01-30T02:07:38;29.13;;;12.30;;
19024;SDS011;9645;51.448;6.260;2024-01-30T02:10:06;32.03;;;12.25;;
19024;SDS011;9645;51.448;6.260;2024-01-30T02:12:34;26.63;;;11.60;;
19024;SDS011;9645;51.448;6.260;2024-01-30T02:15:01;31.50;;;11.55;;
19024;SDS011;9645;51.448;6.260;2024-01-30T02:17:30;23.42;;;11.55;;
19024;SDS011;9645;51.448;6.260;2024-01-30T02:19:57;32.60;;;11.70;;
19024;SDS011;9645;51.448;6.260;2024-01-30T02:22:25;30.80;;;11.65;;
19024;SDS011;9645;51.448;6.260;2024-01-30T02:24:53;32.95;;;12.25;;
19024;SDS011;9645;51.448;6.260;2024-01-30T02:27:20;29.98;;;11.35;;
19024;SDS011;9645;51.448;6.260;2024-01-30T02:29:49;28.58;;;11.73;;
19024;SDS011;9645;51.448;6.260;2024-01-30T02:32:16;26.70;;;12.05;;
19024;SDS011;9645;51.448;6.260;2024-01-30T02:34:43;29.90;;;13.18;;
19024;SDS011;9645;51.448;6.260;2024-01-30T02:37:11;25.67;;;12.05;;
19024;SDS011;9645;51.448;6.260;2024-01-30T02:39:39;34.45;;;13.35;;
19024;SDS011;9645;51.448;6.260;2024-01-30T02:42:06;30.67;;;13.10;;
19024;SDS011;9645;51.448;6.260;2024-01-30T02:44:33;36.25;;;13.25;;
19024;SDS011;9645;51.448;6.260;2024-01-30T02:47:00;32.53;;;13.25;;
19024;SDS011;9645;51.448;6.260;2024-01-30T02:49:27;26.48;;;12.93;;
19024;SDS011;9645;51.448;6.260;2024-01-30T02:51:55;34.38;;;13.30;;
19024;SDS011;9645;51.448;6.260;2024-01-30T02:54:22;30.83;;;13.52;;
19024;SDS011;9645;51.448;6.260;2024-01-30T02:56:50;33.33;;;13.75;;
19024;SDS011;9645;51.448;6.260;2024-01-30T02:59:18;30.38;;;13.90;;
19024;SDS011;9645;51.448;6.260;2024-01-30T03:01:44;30.13;;;14.32;;
19024;SDS011;9645;51.448;6.260;2024-01-30T03:04:13;36.65;;;14.45;;
19024;SDS011;9645;51.448;6.260;2024-01-30T03:06:44;31.55;;;13.88;;
19024;SDS011;9645;51.448;6.260;2024-01-30T03:09:12;38.30;;;14.45;;
19024;SDS011;9645;51.448;6.260;2024-01-30T03:11:38;31.08;;;13.85;;
19024;SDS011;9645;51.448;6.260;2024-01-30T03:14:07;29.35;;;13.13;;
19024;SDS011;9645;51.448;6.260;2024-01-30T03:16:36;31.92;;;14.23;;
19024;SDS011;9645;51.448;6.260;2024-01-30T03:19:03;28.92;;;13.18;;
19024;SDS011;9645;51.448;6.260;2024-01-30T03:21:31;27.80;;;12.90;;
19024;SDS011;9645;51.448;6.260;2024-01-30T03:23:58;39.17;;;13.00;;
19024;SDS011;9645;51.448;6.260;2024-01-30T03:26:25;39.05;;;14.05;;
19024;SDS011;9645;51.448;6.260;2024-01-30T03:28:52;27.88;;;12.77;;
19024;SDS011;9645;51.448;6.260;2024-01-30T03:31:20;32.60;;;14.15;;
19024;SDS011;9645;51.448;6.260;2024-01-30T03:33:47;36.05;;;14.05;;
19024;SDS011;9645;51.448;6.260;2024-01-30T03:36:15;28.90;;;13.07;;
19024;SDS011;9645;51.448;6.260;2024-01-30T03:38:42;32.22;;;13.38;;
19024;SDS011;9645;51.448;6.260;2024-01-30T03:41:09;35.58;;;14.15;;
19024;SDS011;9645;51.448;6.260;2024-01-30T03:43:37;37.22;;;14.55;;
19024;SDS011;9645;51.448;6.260;2024-01-30T03:46:04;26.73;;;12.98;;
19024;SDS011;9645;51.448;6.260;2024-01-30T03:48:33;36.15;;;14.25;;
19024;SDS011;9645;51.448;6.260;2024-01-30T03:51:00;31.33;;;14.10;;
19024;SDS011;9645;51.448;6.260;2024-01-30T03:53:27;32.15;;;13.70;;
19024;SDS011;9645;51.448;6.260;2024-01-30T03:55:54;33.50;;;14.80;;
19024;SDS011;9645;51.448;6.260;2024-01-30T03:58:21;33.35;;;14.50;;
19024;SDS011;9645;51.448;6.260;2024-01-30T04:00:48;29.45;;;14.43;;
19024;SDS011;9645;51.448;6.260;2024-01-30T04:03:15;31.00;;;14.10;;
19024;SDS011;9645;51.448;6.260;2024-01-30T04:05:43;28.95;;;14.20;;
19024;SDS011;9645;51.448;6.260;2024-01-30T04:08:11;32.20;;;14.65;;
19024;SDS011;9645;51.448;6.260;2024-01-30T04:10:38;31.27;;;14.73;;
19024;SDS011;9645;51.448;6.260;2024-01-30T04:13:05;35.10;;;14.85;;
19024;SDS011;9645;51.448;6.260;2024-01-30T04:15:32;35.05;;;14.10;;
19024;SDS011;9645;51.448;6.260;2024-01-30T04:18:00;33.42;;;15.13;;
19024;SDS011;9645;51.448;6.260;2024-01-30T04:20:27;30.70;;;14.10;;
19024;SDS011;9645;51.448;6.260;2024-01-30T04:22:57;29.55;;;13.63;;
19024;SDS011;9645;51.448;6.260;2024-01-30T04:25:24;27.83;;;13.88;;
19024;SDS011;9645;51.448;6.260;2024-01-30T04:27:51;30.67;;;14.70;;
19024;SDS011;9645;51.448;6.260;2024-01-30T04:30:18;28.35;;;14.20;;
19024;SDS011;9645;51.448;6.260;2024-01-30T04:32:45;29.30;;;12.75;;
19024;SDS011;9645;51.448;6.260;2024-01-30T04:35:12;38.72;;;12.77;;
19024;SDS011;9645;51.448;6.260;2024-01-30T04:37:39;28.75;;;12.60;;
19024;SDS011;9645;51.448;6.260;2024-01-30T04:40:08;26.75;;;13.05;;
19024;SDS011;9645;51.448;6.260;2024-01-30T04:42:36;34.65;;;13.45;;
19024;SDS011;9645;51.448;6.260;2024-01-30T04:45:05;28.25;;;13.20;;
19024;SDS011;9645;51.448;6.260;2024-01-30T04:47:32;30.70;;;14.48;;
19024;SDS011;9645;51.448;6.260;2024-01-30T04:50:01;40.55;;;13.55;;
19024;SDS011;9645;51.448;6.260;2024-01-30T04:52:29;36.10;;;15.15;;
19024;SDS011;9645;51.448;6.260;2024-01-30T04:54:57;28.15;;;12.75;;
19024;SDS011;9645;51.448;6.260;2024-01-30T04:57:25;35.58;;;13.93;;
19024;SDS011;9645;51.448;6.260;2024-01-30T04:59:53;31.08;;;13.55;;
19024;SDS011;9645;51.448;6.260;2024-01-30T05:02:20;29.58;;;12.93;;
19024;SDS011;9645;51.448;6.260;2024-01-30T05:04:47;32.10;;;13.88;;
19024;SDS011;9645;51.448;6.260;2024-01-30T05:07:14;28.73;;;13.50;;
19024;SDS011;9645;51.448;6.260;2024-01-30T05:09:41;35.80;;;13.25;;
19024;SDS011;9645;51.448;6.260;2024-01-30T05:12:08;33.72;;;13.80;;
19024;SDS011;9645;51.448;6.260;2024-01-30T05:14:37;33.00;;;13.75;;
19024;SDS011;9645;51.448;6.260;2024-01-30T05:17:04;40.63;;;13.65;;
19024;SDS011;9645;51.448;6.260;2024-01-30T05:19:32;38.47;;;14.27;;
19024;SDS011;9645;51.448;6.260;2024-01-30T05:21:59;38.63;;;13.73;;
19024;SDS011;9645;51.448;6.260;2024-01-30T05:24:27;28.48;;;13.10;;
19024;SDS011;9645;51.448;6.260;2024-01-30T05:26:54;32.08;;;13.82;;
19024;SDS011;9645;51.448;6.260;2024-01-30T05:29:21;28.80;;;13.57;;
19024;SDS011;9645;51.448;6.260;2024-01-30T05:31:49;31.63;;;13.45;;
19024;SDS011;9645;51.448;6.260;2024-01-30T05:34:16;27.50;;;12.45;;
19024;SDS011;9645;51.448;6.260;2024-01-30T05:36:44;31.33;;;13.13;;
19024;SDS011;9645;51.448;6.260;2024-01-30T05:39:11;35.08;;;13.35;;
19024;SDS011;9645;51.448;6.260;2024-01-30T05:41:38;31.08;;;13.15;;
19024;SDS011;9645;51.448;6.260;2024-01-30T05:44:05;32.90;;;14.13;;
19024;SDS011;9645;51.448;6.260;2024-01-30T05:46:33;28.17;;;13.82;;
19024;SDS011;9645;51.448;6.260;2024-01-30T05:49:01;37.65;;;13.23;;
19024;SDS011;9645;51.448;6.260;2024-01-30T05:51:28;28.77;;;13.05;;
19024;SDS011;9645;51.448;6.260;2024-01-30T05:53:55;27.65;;;14.13;;
19024;SDS011;9645;51.448;6.260;2024-01-30T05:56:22;27.58;;;13.13;;
19024;SDS011;9645;51.448;6.260;2024-01-30T05:58:49;36.17;;;14.00;;
19024;SDS011;9645;51.448;6.260;2024-01-30T06:01:16;28.65;;;13.00;;
19024;SDS011;9645;51.448;6.260;2024-01-30T06:03:44;32.05;;;13.40;;
19024;SDS011;9645;51.448;6.260;2024-01-30T06:06:12;35.28;;;13.70;;
19024;SDS011;9645;51.448;6.260;2024-01-30T06:08:39;24.05;;;12.07;;
19024;SDS011;9645;51.448;6.260;2024-01-30T06:11:09;25.67;;;11.88;;
19024;SDS011;9645;51.448;6.260;2024-01-30T06:13:37;28.88;;;12.18;;
19024;SDS011;9645;51.448;6.260;2024-01-30T06:16:04;27.35;;;12.02;;
19024;SDS011;9645;51.448;6.260;2024-01-30T06:18:31;26.10;;;12.57;;
19024;SDS011;9645;51.448;6.260;2024-01-30T06:20:58;28.05;;;12.90;;
19024;SDS011;9645;51.448;6.260;2024-01-30T06:23:28;31.02;;;13.60;;
19024;SDS011;9645;51.448;6.260;2024-01-30T06:25:55;31.48;;;13.68;;
19024;SDS011;9645;51.448;6.260;2024-01-30T06:28:25;28.10;;;13.63;;
19024;SDS011;9645;51.448;6.260;2024-01-30T06:30:54;33.03;;;14.65;;
19024;SDS011;9645;51.448;6.260;2024-01-30T06:33:21;34.58;;;14.57;;
19024;SDS011;9645;51.448;6.260;2024-01-30T06:35:48;35.53;;;14.85;;
19024;SDS011;9645;51.448;6.260;2024-01-30T06:38:15;34.80;;;14.85;;
19024;SDS011;9645;51.448;6.260;2024-01-30T06:40:49;34.13;;;12.73;;
19024;SDS011;9645;51.448;6.260;2024-01-30T06:43:19;24.85;;;12.60;;
19024;SDS011;9645;51.448;6.260;2024-01-30T06:49:17;32.70;;;13.25;;
19024;SDS011;9645;51.448;6.260;2024-01-30T06:52:07;25.42;;;12.13;;
19024;SDS011;9645;51.448;6.260;2024-01-30T06:54:40;26.17;;;11.65;;
19024;SDS011;9645;51.448;6.260;2024-01-30T06:57:08;28.35;;;14.10;;
19024;SDS011;9645;51.448;6.260;2024-01-30T06:59:37;27.05;;;12.40;;
19024;SDS011;9645;51.448;6.260;2024-01-30T07:15:48;27.80;;;12.63;;
19024;SDS011;9645;51.448;6.260;2024-01-30T07:18:15;25.77;;;11.15;;
19024;SDS011;9645;51.448;6.260;2024-01-30T07:20:42;27.80;;;12.35;;
19024;SDS011;9645;51.448;6.260;2024-01-30T07:23:11;21.67;;;11.07;;
19024;SDS011;9645;51.448;6.260;2024-01-30T07:25:39;27.83;;;11.70;;
19024;SDS011;9645;51.448;6.260;2024-01-30T07:28:06;28.77;;;12.95;;
19024;SDS011;9645;51.448;6.260;2024-01-30T07:30:34;31.40;;;13.07;;
19024;SDS011;9645;51.448;6.260;2024-01-30T07:33:02;26.55;;;11.88;;
19024;SDS011;9645;51.448;6.260;2024-01-30T07:35:30;40.97;;;12.95;;
19024;SDS011;9645;51.448;6.260;2024-01-30T07:37:56;27.75;;;12.85;;
19024;SDS011;9645;51.448;6.260;2024-01-30T07:40:23;26.27;;;11.20;;
19024;SDS011;9645;51.448;6.260;2024-01-30T07:42:50;43.35;;;12.55;;
19024;SDS011;9645;51.448;6.260;2024-01-30T07:45:19;24.48;;;11.75;;
19024;SDS011;9645;51.448;6.260;2024-01-30T07:47:47;29.17;;;12.43;;
19024;SDS011;9645;51.448;6.260;2024-01-30T07:50:16;34.05;;;13.13;;
19024;SDS011;9645;51.448;6.260;2024-01-30T07:52:44;26.42;;;12.45;;
19024;SDS011;9645;51.448;6.260;2024-01-30T07:55:11;29.02;;;12.30;;
19024;SDS011;9645;51.448;6.260;2024-01-30T07:57:38;27.02;;;11.50;;
19024;SDS011;9645;51.448;6.260;2024-01-30T08:00:06;26.52;;;11.85;;
19024;SDS011;9645;51.448;6.260;2024-01-30T08:02:33;27.88;;;11.30;;
19024;SDS011;9645;51.448;6.260;2024-01-30T08:05:00;30.88;;;12.13;;
19024;SDS011;9645;51.448;6.260;2024-01-30T08:07:28;28.95;;;11.35;;
19024;SDS011;9645;51.448;6.260;2024-01-30T08:09:56;30.88;;;11.75;;
19024;SDS011;9645;51.448;6.260;2024-01-30T08:12:22;31.35;;;12.27;;
19024;SDS011;9645;51.448;6.260;2024-01-30T08:14:49;26.35;;;11.18;;
19024;SDS011;9645;51.448;6.260;2024-01-30T08:17:16;29.30;;;11.60;;
19024;SDS011;9645;51.448;6.260;2024-01-30T08:19:43;30.85;;;12.25;;
19024;SDS011;9645;51.448;6.260;2024-01-30T08:22:11;31.10;;;12.70;;
19024;SDS011;9645;51.448;6.260;2024-01-30T08:24:40;26.98;;;12.10;;
19024;SDS011;9645;51.448;6.260;2024-01-30T08:27:07;27.73;;;11.68;;
19024;SDS011;9645;51.448;6.260;2024-01-30T08:29:35;20.17;;;9.98;;
19024;SDS011;9645;51.448;6.260;2024-01-30T08:32:02;34.33;;;11.65;;
19024;SDS011;9645;51.448;6.260;2024-01-30T08:34:30;23.15;;;11.63;;
19024;SDS011;9645;51.448;6.260;2024-01-30T08:36:57;27.70;;;11.57;;
19024;SDS011;9645;51.448;6.260;2024-01-30T08:39:24;27.55;;;11.70;;
19024;SDS011;9645;51.448;6.260;2024-01-30T08:41:52;28.23;;;11.25;;
19024;SDS011;9645;51.448;6.260;2024-01-30T08:44:19;28.55;;;11.45;;
19024;SDS011;9645;51.448;6.260;2024-01-30T08:46:46;27.75;;;10.40;;
19024;SDS011;9645;51.448;6.260;2024-01-30T08:49:13;27.20;;;10.35;;
19024;SDS011;9645;51.448;6.260;2024-01-30T08:51:42;20.90;;;10.35;;
19024;SDS011;9645;51.448;6.260;2024-01-30T08:54:09;23.17;;;10.15;;
19024;SDS011;9645;51.448;6.260;2024-01-30T08:56:36;21.58;;;10.60;;
19024;SDS011;9645;51.448;6.260;2024-01-30T08:59:04;30.77;;;10.60;;
19024;SDS011;9645;51.448;6.260;2024-01-30T09:01:31;22.02;;;9.25;;
19024;SDS011;9645;51.448;6.260;2024-01-30T09:03:58;19.67;;;9.10;;
19024;SDS011;9645;51.448;6.260;2024-01-30T09:06:25;24.08;;;8.43;;
19024;SDS011;9645;51.448;6.260;2024-01-30T09:08:54;14.65;;;8.20;;
19024;SDS011;9645;51.448;6.260;2024-01-30T09:11:23;15.45;;;8.18;;
19024;SDS011;9645;51.448;6.260;2024-01-30T09:13:50;19.25;;;7.88;;
19024;SDS011;9645;51.448;6.260;2024-01-30T09:16:18;23.65;;;8.60;;
19024;SDS011;9645;51.448;6.260;2024-01-30T09:18:45;16.95;;;8.45;;
19024;SDS011;9645;51.448;6.260;2024-01-30T09:21:12;15.10;;;7.68;;
19024;SDS011;9645;51.448;6.260;2024-01-30T09:23:39;18.50;;;7.78;;
19024;SDS011;9645;51.448;6.260;2024-01-30T09:26:06;14.98;;;7.78;;
19024;SDS011;9645;51.448;6.260;2024-01-30T09:28:33;17.67;;;7.35;;
19024;SDS011;9645;51.448;6.260;2024-01-30T09:31:00;13.00;;;7.30;;
19024;SDS011;9645;51.448;6.260;2024-01-30T09:33:29;16.33;;;7.50;;
19024;SDS011;9645;51.448;6.260;2024-01-30T09:35:56;19.83;;;6.97;;
19024;SDS011;9645;51.448;6.260;2024-01-30T09:38:23;13.15;;;6.95;;
19024;SDS011;9645;51.448;6.260;2024-01-30T09:40:51;14.30;;;7.05;;
19024;SDS011;9645;51.448;6.260;2024-01-30T09:43:22;19.17;;;8.88;;
19024;SDS011;9645;51.448;6.260;2024-01-30T09:45:49;14.43;;;8.07;;
19024;SDS011;9645;51.448;6.260;2024-01-30T09:48:17;15.02;;;7.15;;
19024;SDS011;9645;51.448;6.260;2024-01-30T09:50:45;16.40;;;7.00;;
19024;SDS011;9645;51.448;6.260;2024-01-30T09:53:12;15.32;;;7.90;;
19024;SDS011;9645;51.448;6.260;2024-01-30T09:55:42;15.85;;;7.75;;
19024;SDS011;9645;51.448;6.260;2024-01-30T09:58:09;16.15;;;7.55;;
19024;SDS011;9645;51.448;6.260;2024-01-30T10:00:38;14.95;;;7.95;;
19024;SDS011;9645;51.448;6.260;2024-01-30T10:03:04;16.77;;;7.78;;
19024;SDS011;9645;51.448;6.260;2024-01-30T10:05:31;12.70;;;6.85;;
19024;SDS011;9645;51.448;6.260;2024-01-30T10:08:01;15.63;;;7.50;;
19024;SDS011;9645;51.448;6.260;2024-01-30T10:10:33;20.23;;;8.52;;
19024;SDS011;9645;51.448;6.260;2024-01-30T10:13:01;17.30;;;7.32;;
19024;SDS011;9645;51.448;6.260;2024-01-30T10:15:28;11.80;;;6.63;;
19024;SDS011;9645;51.448;6.260;2024-01-30T10:17:55;15.45;;;7.07;;
19024;SDS011;9645;51.448;6.260;2024-01-30T10:20:22;17.10;;;7.43;;
19024;SDS011;9645;51.448;6.260;2024-01-30T10:22:51;24.60;;;7.32;;
19024;SDS011;9645;51.448;6.260;2024-01-30T10:25:19;17.55;;;7.78;;
19024;SDS011;9645;51.448;6.260;2024-01-30T10:27:52;17.90;;;7.60;;
19024;SDS011;9645;51.448;6.260;2024-01-30T10:30:20;18.30;;;7.80;;
19024;SDS011;9645;51.448;6.260;2024-01-30T10:32:47;15.32;;;7.63;;
19024;SDS011;9645;51.448;6.260;2024-01-30T10:35:14;21.02;;;7.70;;
19024;SDS011;9645;51.448;6.260;2024-01-30T10:37:42;19.92;;;8.15;;
19024;SDS011;9645;51.448;6.260;2024-01-30T10:40:12;15.03;;;7.70;;
19024;SDS011;9645;51.448;6.260;2024-01-30T10:42:43;17.37;;;6.70;;
19024;SDS011;9645;51.448;6.260;2024-01-30T10:45:10;15.17;;;7.33;;
19024;SDS011;9645;51.448;6.260;2024-01-30T10:47:39;13.50;;;7.43;;
19024;SDS011;9645;51.448;6.260;2024-01-30T10:50:08;13.93;;;7.20;;
19024;SDS011;9645;51.448;6.260;2024-01-30T10:52:35;15.90;;;8.00;;
19024;SDS011;9645;51.448;6.260;2024-01-30T10:55:04;18.27;;;7.80;;
19024;SDS011;9645;51.448;6.260;2024-01-30T10:57:33;19.20;;;8.60;;
19024;SDS011;9645;51.448;6.260;2024-01-30T11:00:03;14.90;;;7.67;;
19024;SDS011;9645;51.448;6.260;2024-01-30T11:02:36;13.17;;;6.90;;
19024;SDS011;9645;51.448;6.260;2024-01-30T11:05:04;25.67;;;8.00;;
19024;SDS011;9645;51.448;6.260;2024-01-30T11:07:31;16.70;;;6.87;;
19024;SDS011;9645;51.448;6.260;2024-01-30T11:09:59;17.00;;;8.00;;
19024;SDS011;9645;51.448;6.260;2024-01-30T11:12:28;17.73;;;7.57;;
19024;SDS011;9645;51.448;6.260;2024-01-30T11:15:06;14.63;;;7.63;;
19024;SDS011;9645;51.448;6.260;2024-01-30T11:17:43;12.23;;;7.13;;
19024;SDS011;9645;51.448;6.260;2024-01-30T11:20:14;19.37;;;8.20;;
19024;SDS011;9645;51.448;6.260;2024-01-30T11:22:44;24.03;;;7.77;;
19024;SDS011;9645;51.448;6.260;2024-01-30T11:25:12;20.13;;;7.40;;
19024;SDS011;9645;51.448;6.260;2024-01-30T11:27:40;16.43;;;7.47;;
19024;SDS011;9645;51.448;6.260;2024-01-30T11:30:09;24.83;;;8.30;;
19024;SDS011;9645;51.448;6.260;2024-01-30T11:32:37;26.60;;;9.00;;
19024;SDS011;9645;51.448;6.260;2024-01-30T11:35:04;14.93;;;7.87;;
19024;SDS011;9645;51.448;6.260;2024-01-30T11:37:35;12.43;;;7.23;;
19024;SDS011;9645;51.448;6.260;2024-01-30T11:40:04;16.50;;;8.10;;
19024;SDS011;9645;51.448;6.260;2024-01-30T11:42:32;16.37;;;8.10;;
19024;SDS011;9645;51.448;6.260;2024-01-30T11:45:00;15.27;;;8.10;;
19024;SDS011;9645;51.448;6.260;2024-01-30T11:47:29;16.03;;;7.77;;
19024;SDS011;9645;51.448;6.260;2024-01-30T11:49:57;14.70;;;7.30;;
19024;SDS011;9645;51.448;6.260;2024-01-30T11:52:24;20.73;;;7.40;;
19024;SDS011;9645;51.448;6.260;2024-01-30T11:54:51;13.77;;;7.20;;
19024;SDS011;9645;51.448;6.260;2024-01-30T11:57:18;12.63;;;7.27;;
19024;SDS011;9645;51.448;6.260;2024-01-30T11:59:45;16.83;;;7.27;;
19024;SDS011;9645;51.448;6.260;2024-01-30T12:02:15;15.20;;;8.57;;
19024;SDS011;9645;51.448;6.260;2024-01-30T12:04:44;14.60;;;7.53;;
19024;SDS011;9645;51.448;6.260;2024-01-30T12:07:11;21.43;;;8.17;;
19024;SDS011;9645;51.448;6.260;2024-01-30T12:09:41;14.70;;;7.13;;
19024;SDS011;9645;51.448;6.260;2024-01-30T12:12:08;16.57;;;7.90;;
19024;SDS011;9645;51.448;6.260;2024-01-30T12:14:37;20.87;;;7.70;;
19024;SDS011;9645;51.448;6.260;2024-01-30T12:17:05;21.10;;;8.47;;
19024;SDS011;9645;51.448;6.260;2024-01-30T12:19:33;23.63;;;8.00;;
19024;SDS011;9645;51.448;6.260;2024-01-30T12:22:02;13.30;;;7.77;;
19024;SDS011;9645;51.448;6.260;2024-01-30T12:24:29;26.03;;;8.10;;
19024;SDS011;9645;51.448;6.260;2024-01-30T12:26:56;20.93;;;7.50;;
19024;SDS011;9645;51.448;6.260;2024-01-30T12:29:23;18.27;;;7.70;;
19024;SDS011;9645;51.448;6.260;2024-01-30T12:31:52;20.73;;;7.70;;
19024;SDS011;9645;51.448;6.260;2024-01-30T12:34:20;26.40;;;7.50;;
19024;SDS011;9645;51.448;6.260;2024-01-30T12:36:47;19.40;;;6.80;;
19024;SDS011;9645;51.448;6.260;2024-01-30T12:39:16;14.67;;;7.80;;
19024;SDS011;9645;51.448;6.260;2024-01-30T12:41:43;15.70;;;7.93;;
19024;SDS011;9645;51.448;6.260;2024-01-30T12:44:10;18.53;;;8.33;;
19024;SDS011;9645;51.448;6.260;2024-01-30T12:46:39;17.97;;;8.43;;
19024;SDS011;9645;51.448;6.260;2024-01-30T12:49:06;17.20;;;7.90;;
19024;SDS011;9645;51.448;6.260;2024-01-30T12:51:33;16.73;;;7.23;;
19024;SDS011;9645;51.448;6.260;2024-01-30T12:54:04;22.60;;;8.17;;
19024;SDS011;9645;51.448;6.260;2024-01-30T12:56:33;19.20;;;7.90;;
19024;SDS011;9645;51.448;6.260;2024-01-30T12:59:00;18.43;;;8.37;;
19024;SDS011;9645;51.448;6.260;2024-01-30T13:01:27;26.87;;;8.47;;
19024;SDS011;9645;51.448;6.260;2024-01-30T13:03:58;24.43;;;9.20;;
19024;SDS011;9645;51.448;6.260;2024-01-30T13:06:25;16.97;;;8.80;;
19024;SDS011;9645;51.448;6.260;2024-01-30T13:08:51;23.83;;;8.20;;
19024;SDS011;9645;51.448;6.260;2024-01-30T13:11:18;24.83;;;9.27;;
19024;SDS011;9645;51.448;6.260;2024-01-30T13:13:47;16.57;;;8.60;;
19024;SDS011;9645;51.448;6.260;2024-01-30T13:16:14;24.17;;;8.23;;
19024;SDS011;9645;51.448;6.260;2024-01-30T13:18:41;18.27;;;9.07;;
19024;SDS011;9645;51.448;6.260;2024-01-30T13:21:08;16.17;;;8.33;;
19024;SDS011;9645;51.448;6.260;2024-01-30T13:23:35;20.37;;;8.90;;
19024;SDS011;9645;51.448;6.260;2024-01-30T13:26:01;20.23;;;9.67;;
19024;SDS011;9645;51.448;6.260;2024-01-30T13:28:28;20.50;;;8.60;;
19024;SDS011;9645;51.448;6.260;2024-01-30T13:30:57;13.10;;;8.03;;
19024;SDS011;9645;51.448;6.260;2024-01-30T13:33:24;15.93;;;8.57;;
19024;SDS011;9645;51.448;6.260;2024-01-30T13:35:51;20.27;;;8.10;;
19024;SDS011;9645;51.448;6.260;2024-01-30T13:38:17;17.10;;;8.10;;
19024;SDS011;9645;51.448;6.260;2024-01-30T13:40:44;20.43;;;7.67;;
19024;SDS011;9645;51.448;6.260;2024-01-30T13:43:13;18.13;;;7.00;;
19024;SDS011;9645;51.448;6.260;2024-01-30T13:45:41;16.23;;;5.60;;
19024;SDS011;9645;51.448;6.260;2024-01-30T13:48:09;12.33;;;5.67;;
19024;SDS011;9645;51.448;6.260;2024-01-30T13:50:36;18.10;;;5.60;;
19024;SDS011;9645;51.448;6.260;2024-01-30T13:53:03;9.27;;;5.07;;
19024;SDS011;9645;51.448;6.260;2024-01-30T13:55:30;6.87;;;4.53;;
19024;SDS011;9645;51.448;6.260;2024-01-30T13:57:57;13.27;;;4.90;;
19024;SDS011;9645;51.448;6.260;2024-01-30T14:00:24;16.93;;;4.60;;
19024;SDS011;9645;51.448;6.260;2024-01-30T14:02:51;8.67;;;5.00;;
19024;SDS011;9645;51.448;6.260;2024-01-30T14:05:21;9.17;;;4.77;;
19024;SDS011;9645;51.448;6.260;2024-01-30T14:07:48;10.37;;;4.33;;
19024;SDS011;9645;51.448;6.260;2024-01-30T14:10:15;14.03;;;3.97;;
19024;SDS011;9645;51.448;6.260;2024-01-30T14:12:42;7.47;;;3.50;;
19024;SDS011;9645;51.448;6.260;2024-01-30T14:15:10;8.13;;;3.57;;
19024;SDS011;9645;51.448;6.260;2024-01-30T14:17:38;6.60;;;3.80;;
19024;SDS011;9645;51.448;6.260;2024-01-30T14:20:05;6.93;;;3.13;;
19024;SDS011;9645;51.448;6.260;2024-01-30T14:22:34;6.43;;;2.90;;
19024;SDS011;9645;51.448;6.260;2024-01-30T14:25:01;8.77;;;2.90;;
19024;SDS011;9645;51.448;6.260;2024-01-30T14:27:29;8.13;;;2.60;;
19024;SDS011;9645;51.448;6.260;2024-01-30T14:29:56;5.00;;;2.50;;
19024;SDS011;9645;51.448;6.260;2024-01-30T14:32:23;3.00;;;1.90;;
19024;SDS011;9645;51.448;6.260;2024-01-30T14:34:50;4.10;;;1.87;;
19024;SDS011;9645;51.448;6.260;2024-01-30T14:37:17;12.43;;;2.20;;
19024;SDS011;9645;51.448;6.260;2024-01-30T14:39:46;8.60;;;2.43;;
19024;SDS011;9645;51.448;6.260;2024-01-30T14:42:14;2.45;;;1.75;;
19024;SDS011;9645;51.448;6.260;2024-01-30T14:44:41;4.80;;;1.53;;
19024;SDS011;9645;51.448;6.260;2024-01-30T14:47:08;2.65;;;1.60;;
19024;SDS011;9645;51.448;6.260;2024-01-30T14:49:38;3.97;;;1.30;;
19024;SDS011;9645;51.448;6.260;2024-01-30T14:52:05;3.80;;;1.70;;
19024;SDS011;9645;51.448;6.260;2024-01-30T14:54:32;3.85;;;1.40;;
19024;SDS011;9645;51.448;6.260;2024-01-30T14:57:00;3.85;;;1.10;;
19024;SDS011;9645;51.448;6.260;2024-01-30T14:59:27;6.47;;;1.30;;
19024;SDS011;9645;51.448;6.260;2024-01-30T15:01:55;5.97;;;1.25;;